Tiempo atmosférico en la estación meteorológica de Forua, Bizkaia (45 m.)



Fecha
DESCASC
Temp. máxima en grados centígrados (hora)
DESCASC
Temp. mínima en grados centígrados (hora)
DESCASC
Temp. media en grados centígrados
DESCASC
Racha de viento máxima en m/sg (hora)
DESCASC
Velocidad máxima media en intervalos de 10 minutos(hora)
DESCASC
Precipitaciones diarias en mm
DESCASC
Precipitaciones de 00:00 a 06:00 en mm
DESCASC
Precipitaciones de 06:00 a 12:00 en mm
DESCASC
Precipitaciones de 12:00 a 18:00 en mm
DESCASC
Precipitaciones de 18:00 a 24:00 en mm
DESCASC
17-02-2019 21.9 (16:20) 11.4 (21:20) 16.6 12.22 (10:40) 8.06 (10:50) 0 0 0 0 0
16-02-2019 21.1 (15:10) 4.7 (07:00) 12.9 11.39 (14:30) 6.11 (14:50) 0 0 0 0 0
15-02-2019 21.8 (16:10) 7.5 (23:59) 14.6 10.83 (03:10) 6.67 (03:50) 0 0 0 0 0
14-02-2019 20.2 (15:40) 4.6 (00:00) 12.4 12.22 (13:40) 8.33 (13:20) 0 0 0 0 0
13-02-2019 16 (14:30) 0.7 (00:00) 8.3 5.28 (17:00) 3.61 (17:00) 0 0 0 0 0
12-02-2019 11.8 (14:00) 3.5 (00:00) 7.7 7.22 (13:50) 4.17 (15:40) 0.2 0 0.2 0 0
11-02-2019 10.8 (14:10) 5.3 (00:00) 8.1 8.33 (02:50) 4.17 (12:40) 8 0.2 1.4 6.4 0
10-02-2019 15 (09:30) 7.8 (00:00) 11.4 14.44 (08:20) 7.78 (08:20) 6.6 0 5 1 0.6
09-02-2019 18 (14:20) 5.2 (00:00) 11.6 11.11 (23:50) 6.39 (16:40) 0 0 0 0 0
08-02-2019 17.4 (13:50) 2.5 (00:00) 9.9 7.5 (16:20) 5 (14:50) 0 0 0 0 0
07-02-2019 12.8 (16:00) 4.3 (00:00) 8.6 6.67 (12:00) 3.61 (12:50) 0 0 0 0 0
06-02-2019 18.3 (14:10) 4 (00:00) 11.1 5 (18:00) 3.33 (17:40) 0 0 0 0 0
05-02-2019 15.5 (15:00) 7.9 (00:00) 11.7 5.83 (13:30) 4.17 (06:40) 0.2 0 0.2 0 0
04-02-2019 11.4 (15:00) -0.1 (00:00) 5.6 5.56 (18:40) 3.33 (19:20) 0.2 0 0.2 0 0
03-02-2019 9.7 (15:00) 2.9 (00:00) 6.3 12.78 (03:10) 6.94 (02:40) 7.4 0.6 5.6 0.2 1
02-02-2019 9.8 (14:00) 5 (00:00) 7.4 20.83 (09:30) 10.28 (08:50) 13.4 9 2 0.6 1.8
01-02-2019 13.2 (13:10) 5 (00:00) 9.1 11.94 (10:00) 6.11 (11:10) 2.4 0.4 0 1.6 0.4
31-01-2019 16.4 (15:20) 7.5 (00:00) 11.9 10.83 (18:00) 5.28 (18:10) 47.8 9.2 14 10.6 14
30-01-2019 11.2 (15:40) 5.6 (00:00) 8.4 19.17 (00:10) 10 (00:20) 27 9 12.8 0 5.2
29-01-2019 10.4 (16:20) 6.8 (00:00) 8.6 21.11 (23:30) 12.22 (21:10) 23.6 5.4 2.6 11 4.6
28-01-2019 12 (13:40) 7.6 (00:00) 9.8 21.67 (07:50) 13.33 (07:40) 22.8 8 7.6 2.4 4.8
27-01-2019 10.6 (16:00) 5.2 (00:00) 7.9 23.06 (13:30) 11.67 (15:10) 21 3 7.4 2.8 7.8
26-01-2019 15.1 (15:20) 5.4 (00:00) 10.3 6.11 (17:00) 3.89 (17:00) 1 1 0 0 0
25-01-2019 12.1 (16:30) 7.5 (00:00) 9.8 12.78 (03:20) 7.22 (03:20) 5.8 2.8 1.6 0.2 1.2
24-01-2019 8.3 (00:00) 6.7 (00:00) 7.5 10.83 (00:10) 5.28 (00:20) 20 7.6 6.8 4.4 1.2
23-01-2019 11.8 (07:10) 7.2 (00:00) 9.5 26.39 (07:40) 14.44 (07:40) 36.2 20.2 4.2 6.8 5
22-01-2019 8.3 (15:20) 2.3 (00:00) 5.3 12.78 (14:40) 7.5 (14:40) 29.4 0.2 9.2 9.4 10.6
21-01-2019 10.3 (14:10) 2.1 (00:00) 6.2 7.5 (15:00) 4.17 (14:30) 2.8 2.8 0 0 0
20-01-2019 10.8 (16:10) 6.4 (00:00) 8.6 11.39 (18:00) 5.28 (18:00) 17.2 1.4 5 6.6 4.2
19-01-2019 12 (14:10) 4.5 (00:00) 8.3 9.17 (15:30) 5.56 (17:30) 0.8 0.8 0 0 0

Gráficas

Temp. máximas Temp. mínimas Temp. medias Precipitaciones Rachas de viento máximas Velocidades máximas media en intervalos de 10 minutos

Datos horarios

Fecha y hora oficial Temperatura (ºC) Velocidad del viento (km/h) Dirección del viento Racha (km/h) Dirección de racha Precipitación (mm) Presión (hPa) Tendencia (hPa) Humedad (%)
2019-02-17 23:00:00 13.1 4 Sur 14 Sudoeste 0 -- -- 37
2019-02-17 22:00:00 13.4 6 Sudoeste 16 Sudoeste 0 -- -- 35
2019-02-17 21:00:00 11.9 7 Sudoeste 12 Oeste 0 -- -- 42
2019-02-17 20:00:00 13.3 3 Sudoeste 9 Sudeste 0 -- -- 43
2019-02-17 19:00:00 16.1 4 Sudeste 18 Sudoeste 0 -- -- 35
2019-02-17 18:00:00 19.2 5 Sudoeste 17 Sudoeste 0 -- -- 25
2019-02-17 17:00:00 21.1 8 Sudoeste 29 Oeste 0 -- -- 20
2019-02-17 16:00:00 21.8 13 Oeste 26 Oeste 0 -- -- 22
2019-02-17 15:00:00 21.2 15 Oeste 36 Oeste 0 -- -- 22
2019-02-17 14:00:00 20.7 24 Sudoeste 39 Oeste 0 -- -- 22
2019-02-17 13:00:00 20.1 20 Sudoeste 37 Sudoeste 0 -- -- 24
2019-02-17 12:00:00 18.7 24 Oeste 44 Oeste 0 -- -- 25
2019-02-17 11:00:00 17.3 25 Oeste 44 Oeste 0 -- -- 26
2019-02-17 10:00:00 15.9 22 Oeste 36 Oeste 0 -- -- 27
2019-02-17 09:00:00 14.4 14 Oeste 30 Oeste 0 -- -- 29
2019-02-17 08:00:00 13.5 20 Oeste 38 Oeste 0 -- -- 30
2019-02-17 07:00:00 13.8 27 Oeste 40 Oeste 0 -- -- 29
2019-02-17 06:00:00 14.2 24 Oeste 43 Oeste 0 -- -- 29
2019-02-17 05:00:00 15.1 22 Oeste 39 Oeste 0 -- -- 30
2019-02-17 04:00:00 14.6 21 Oeste 34 Oeste 0 -- -- 33
2019-02-17 03:00:00 15.1 18 Oeste 27 Oeste 0 -- -- 31
2019-02-17 02:00:00 15.4 19 Oeste 30 Oeste 0 -- -- 32
2019-02-17 01:00:00 13.7 14 Oeste 22 Oeste 0 -- -- 38
2019-02-17 00:00:00 14.4 13 Sudoeste 33 Oeste 0 -- -- 37
2019-02-16 23:00:00 14.6 18 Sudoeste 30 Oeste 0 -- -- 38
2019-02-16 22:00:00 14.1 13 Sudoeste 23 Sudoeste 0 -- -- 41
2019-02-16 21:00:00 14.9 13 Oeste 22 Oeste 0 -- -- 40
2019-02-16 20:00:00 15 10 Sudoeste 25 Oeste 0 -- -- 44
2019-02-16 19:00:00 16.2 15 Sudoeste 26 Sudoeste 0 -- -- 43
2019-02-16 18:00:00 18.1 12 Sudoeste 32 Sudoeste 0 -- -- 39
2019-02-16 17:00:00 20 17 Sudoeste 35 Sudoeste 0 -- -- 36
2019-02-16 16:00:00 20.8 21 Sudoeste 37 Sudoeste 0 -- -- 36
2019-02-16 15:00:00 20.8 22 Sudoeste 41 Sudoeste 0 -- -- 36
2019-02-16 14:00:00 20.9 22 Sudoeste 38 Oeste 0 -- -- 37
2019-02-16 13:00:00 19.7 6 Sur 15 Sudeste 0 -- -- 43
2019-02-16 12:00:00 17.7 8 Sur 18 Sudoeste 0 -- -- 46
2019-02-16 11:00:00 15 4 Sur 12 Sur 0 -- -- 58
2019-02-16 10:00:00 11.2 8 Sudoeste 12 Sudoeste 0 -- -- 67
2019-02-16 09:00:00 6.2 9 Sudoeste 12 Sur 0 -- -- 80
2019-02-16 08:00:00 4.9 8 Sudoeste 13 Sudoeste 0 -- -- 82
2019-02-16 07:00:00 4.7 10 Sudoeste 13 Sudoeste 0 -- -- 82
2019-02-16 06:00:00 4.9 9 Sudoeste 12 Sudoeste 0 -- -- 81
2019-02-16 05:00:00 5.4 7 Sudoeste 12 Sudoeste 0 -- -- 78
2019-02-16 04:00:00 5.2 6 Sudoeste 13 Sudoeste 0 -- -- 77
2019-02-16 03:00:00 5.6 8 Sudoeste 12 Sudoeste 0 -- -- 77
2019-02-16 02:00:00 6 9 Sudoeste 11 Sudoeste 0 -- -- 77
2019-02-16 01:00:00 6.7 7 Sudoeste 12 Sudoeste 0 -- -- 75
2019-02-16 00:00:00 7.5 8 Sudoeste 10 Sudoeste 0 -- -- 75
2019-02-15 23:00:00 8.3 8 Oeste 10 Oeste 0 -- -- 68
2019-02-15 22:00:00 9.4 9 Sudoeste 11 Sudoeste 0 -- -- 68
2019-02-15 21:00:00 11.7 4 Sudoeste 10 Sur 0 -- -- 62
2019-02-15 20:00:00 13.7 4 Sudoeste 8 Sudeste 0 -- -- 55
2019-02-15 19:00:00 16.1 5 Sudoeste 16 Oeste 0 -- -- 46
2019-02-15 18:00:00 19 8 Oeste 15 Oeste 0 -- -- 39
2019-02-15 17:00:00 21.3 11 Sudoeste 19 Sudoeste 0 -- -- 36
2019-02-15 16:00:00 21.7 12 Sudoeste 27 Sudoeste 0 -- -- 35
2019-02-15 15:00:00 21.4 15 Sudoeste 32 Sur 0 -- -- 35
2019-02-15 14:00:00 -- -- -- -- -- -- -- -- --
2019-02-15 13:00:00 -- -- -- -- -- -- -- -- --
2019-02-15 12:00:00 -- -- -- -- -- -- -- -- --
2019-02-15 11:00:00 -- -- -- -- -- -- -- -- --
2019-02-15 10:00:00 -- -- -- -- -- -- -- -- --
2019-02-15 09:00:00 -- -- -- -- -- -- -- -- --
2019-02-15 08:00:00 -- -- -- -- -- -- -- -- --
2019-02-15 07:00:00 -- -- -- -- -- -- -- -- --
2019-02-15 06:00:00 -- -- -- -- -- -- -- -- --
2019-02-15 05:00:00 13.3 24 Oeste 37 Oeste 0 -- -- 47
2019-02-15 04:00:00 14.2 23 Oeste 39 Oeste 0 -- -- 44
2019-02-15 03:00:00 13.5 18 Sudoeste 33 Sudoeste 0 -- -- 45
2019-02-15 02:00:00 13 13 Sudoeste 24 Sudoeste 0 -- -- 45
2019-02-15 01:00:00 12.5 10 Sur 16 Sudoeste 0 -- -- 46
2019-02-15 00:00:00 12 12 Sur 18 Sudeste 0 -- -- 46
2019-02-14 23:00:00 12.8 8 Sudeste 15 Sur 0 -- -- 42
2019-02-14 22:00:00 11.7 9 Sur 20 Sudoeste 0 -- -- 46
2019-02-14 21:00:00 13.5 8 Sur 25 Sudoeste 0 -- -- 41
2019-02-14 20:00:00 14.7 17 Sudoeste 24 Sudoeste 0 -- -- 41
2019-02-14 19:00:00 15.4 12 Sudoeste 21 Sudoeste 0 -- -- 41
2019-02-14 18:00:00 17.5 12 Oeste 24 Oeste 0 -- -- 36
2019-02-14 17:00:00 19.5 16 Sudoeste 30 Oeste 0 -- -- 35
2019-02-14 16:00:00 20.2 18 Sudoeste 34 Oeste 0 -- -- 34
2019-02-14 15:00:00 20 21 Oeste 42 Oeste 0 -- -- 34
2019-02-14 14:00:00 19.2 27 Oeste 44 Oeste 0 -- -- 34
2019-02-14 13:00:00 18.7 22 Sudoeste 42 Oeste 0 -- -- 38
2019-02-14 12:00:00 17.6 23 Oeste 37 Sudoeste 0 -- -- 41
2019-02-14 11:00:00 16 22 Oeste 37 Oeste 0 -- -- 46
2019-02-14 10:00:00 14.2 10 Sudoeste 24 Sudoeste 0 -- -- 55
2019-02-14 09:00:00 11.1 13 Sudoeste 22 Sudoeste 0 -- -- 63
2019-02-14 08:00:00 9.6 10 Sudoeste 17 Sudoeste 0 -- -- 68
2019-02-14 07:00:00 7.5 11 Sudoeste 15 Sudoeste 0 -- -- 79
2019-02-14 06:00:00 5.6 8 Sudoeste 12 Sur 0 -- -- 88
2019-02-14 05:00:00 5 7 Sudoeste 12 Oeste 0 -- -- 91
2019-02-14 04:00:00 4.7 8 Sudoeste 12 Sudoeste 0 -- -- 95
2019-02-14 03:00:00 4.9 7 Sudoeste 12 Sudoeste 0 -- -- 96
2019-02-14 02:00:00 5.2 9 Sudoeste 12 Sudoeste 0 -- -- 96
2019-02-14 01:00:00 5.1 8 Sudoeste 13 Sudoeste 0 -- -- 98
2019-02-14 00:00:00 5.3 9 Sudoeste 12 Sudoeste 0 -- -- 97
2019-02-13 23:00:00 5.9 8 Sudoeste 13 Sur 0 -- -- 97
2019-02-13 22:00:00 6.7 6 Sudoeste 9 Sudoeste 0 -- -- 96
2019-02-13 21:00:00 8 6 Sudoeste 9 Sudoeste 0 -- -- 93
2019-02-13 20:00:00 9.2 2 Nordeste 9 Nordeste 0 -- -- 91
2019-02-13 19:00:00 10.2 6 Nordeste 15 Norte 0 -- -- 87
2019-02-13 18:00:00 11.6 9 Nordeste 17 Nordeste 0 -- -- 82
2019-02-13 17:00:00 14.1 13 Norte 19 Norte 0 -- -- 75
2019-02-13 16:00:00 14.9 9 Nordeste 14 Norte 0 -- -- 71
2019-02-13 15:00:00 15.5 7 Nordeste 13 Norte 0 -- -- 66
2019-02-13 14:00:00 15.5 5 Norte 9 Norte 0 -- -- 65
2019-02-13 13:00:00 13.4 3 Este 6 Este 0 -- -- 71
2019-02-13 12:00:00 11 0 Calma 6 Sudoeste 0 -- -- 82
2019-02-13 11:00:00 7.8 2 Sudoeste 4 Sudoeste 0 -- -- 97
2019-02-13 10:00:00 4.6 2 Sur 9 Sudoeste 0 -- -- 100
2019-02-13 09:00:00 1.6 6 Sudoeste 9 Sudoeste 0 -- -- 100
2019-02-13 08:00:00 0.9 5 Sudoeste 10 Sudoeste 0 -- -- 100
2019-02-13 07:00:00 1.2 6 Sudoeste 10 Sudoeste 0 -- -- 100
2019-02-13 06:00:00 1.2 8 Sudoeste 10 Sudoeste 0 -- -- 100
2019-02-13 05:00:00 1.6 7 Sudoeste 10 Sudoeste 0 -- -- 100
2019-02-13 04:00:00 2 8 Sudoeste 9 Sudoeste 0 -- -- 100
2019-02-13 03:00:00 2.6 4 Sudoeste 8 Sudoeste 0 -- -- 100
2019-02-13 02:00:00 2.6 7 Sudoeste 9 Sudoeste 0 -- -- 99
2019-02-13 01:00:00 3.3 6 Sudoeste 8 Sudoeste 0 -- -- 99
2019-02-13 00:00:00 3.5 6 Sudoeste 9 Sudoeste 0 -- -- 98
2019-02-12 23:00:00 4.2 5 Sudoeste 9 Sudoeste 0 -- -- 97
2019-02-12 22:00:00 5.6 4 Oeste 6 Oeste 0 -- -- 95
2019-02-12 21:00:00 6.7 2 Noroeste 4 Sur 0 -- -- 90
2019-02-12 20:00:00 8.3 0 Calma 8 Noroeste 0 -- -- 83
2019-02-12 19:00:00 8.4 5 Norte 11 Este 0 -- -- 83
2019-02-12 18:00:00 10 7 Este 17 Este 0 -- -- 78
2019-02-12 17:00:00 11.3 10 Este 20 Este 0 -- -- 73
2019-02-12 16:00:00 11.4 14 Este 26 Sudeste 0 -- -- 70
2019-02-12 15:00:00 11.6 13 Este 22 Este 0 -- -- 62
2019-02-12 14:00:00 11.8 12 Sudeste 26 Sudeste 0 -- -- 62
2019-02-12 13:00:00 11.1 11 Sudeste 26 Sur 0 -- -- 66
2019-02-12 12:00:00 8.7 3 Nordeste 7 Sudoeste 0 -- -- 100
2019-02-12 11:00:00 6.3 4 Sudoeste 8 Sudoeste 0 -- -- 100
2019-02-12 10:00:00 5.3 0 Calma 6 Sur 0.2 -- -- 100
2019-02-12 09:00:00 4.9 2 Sur 13 Sur 0 -- -- 100
2019-02-12 08:00:00 4.7 4 Sur 9 Sudoeste 0 -- -- 100
2019-02-12 07:00:00 5 6 Sudoeste 12 Sudoeste 0 -- -- 100
2019-02-12 06:00:00 5 6 Sudoeste 12 Sudoeste 0 -- -- 100
2019-02-12 05:00:00 4.8 2 Sudeste 8 Sudoeste 0 -- -- 100
2019-02-12 04:00:00 4.6 2 Sur 7 Oeste 0 -- -- 100
2019-02-12 03:00:00 4.7 2 Sudeste 6 Sur 0 -- -- 100
2019-02-12 02:00:00 4.9 3 Sur 7 Sudoeste 0 -- -- 100
2019-02-12 01:00:00 4.9 2 Sur 7 Sudoeste 0 -- -- 100
2019-02-12 00:00:00 5.3 3 Sudoeste 6 Sudoeste 0 -- -- 100
2019-02-11 23:00:00 6 0 Calma 6 Sudoeste 0 -- -- 100
2019-02-11 22:00:00 6.3 4 Sur 7 Sudoeste 0 -- -- 100
2019-02-11 21:00:00 7.1 3 Sudoeste 4 Sur 0 -- -- 100
2019-02-11 20:00:00 7.4 3 Sur 5 Sudoeste 0 -- -- 100
2019-02-11 19:00:00 7.7 0 Calma 8 Sudoeste 0 -- -- 99
2019-02-11 18:00:00 8.6 7 Sudoeste 8 Sudoeste 0 -- -- 98
2019-02-11 17:00:00 9.1 2 Sudoeste 7 Noroeste 1.2 -- -- 97
2019-02-11 16:00:00 9.6 4 Sur 9 Noroeste 2.4 -- -- 91
2019-02-11 15:00:00 10.4 3 Nordeste 13 Oeste 1 -- -- 93
2019-02-11 14:00:00 10.7 4 Sudeste 12 Sudoeste 0 -- -- 89
2019-02-11 13:00:00 9.4 12 Noroeste 27 Oeste 1.8 -- -- 91
2019-02-11 12:00:00 10.1 15 Noroeste 22 Noroeste 0 -- -- 85
2019-02-11 11:00:00 9.7 5 Sudoeste 21 Oeste 0 -- -- 94
2019-02-11 10:00:00 8.1 9 Oeste 15 Oeste 0.2 -- -- 97
2019-02-11 09:00:00 7.5 6 Sudoeste 15 Noroeste 0.6 -- -- 96
2019-02-11 08:00:00 7.2 8 Oeste 16 Oeste 0 -- -- 98
2019-02-11 07:00:00 6.6 8 Sudoeste 14 Noroeste 0.6 -- -- 98
2019-02-11 06:00:00 6.8 9 Oeste 19 Sudoeste 0 -- -- 97
2019-02-11 05:00:00 7 8 Sur 18 Noroeste 0 -- -- 93
2019-02-11 04:00:00 7.2 5 Sur 26 Norte 0.2 -- -- 91
2019-02-11 03:00:00 7.5 5 Nordeste 30 Norte 0 -- -- 92
2019-02-11 02:00:00 7.1 6 Sudoeste 20 Sudoeste 0 -- -- 91
2019-02-11 01:00:00 7.9 6 Oeste 17 Oeste 0 -- -- 90
2019-02-11 00:00:00 8.7 10 Oeste 22 Noroeste 0 -- -- 85
2019-02-10 23:00:00 8.3 7 Oeste 12 Oeste 0 -- -- 89
2019-02-10 22:00:00 9 7 Oeste 18 Noroeste 0 -- -- 87
2019-02-10 21:00:00 9.8 6 Noroeste 20 Oeste 0.6 -- -- 85
2019-02-10 20:00:00 10 5 Oeste 20 Norte 0 -- -- 75
2019-02-10 19:00:00 10.2 8 Norte 19 Norte 0 -- -- 74
2019-02-10 18:00:00 10.7 8 Norte 19 Norte 0 -- -- 73
2019-02-10 17:00:00 10.7 9 Noroeste 24 Noroeste 0.2 -- -- 81
2019-02-10 16:00:00 10.9 6 Oeste 42 Norte 0 -- -- 82
2019-02-10 15:00:00 10.7 19 Norte 41 Norte 0 -- -- 85
2019-02-10 14:00:00 11.3 12 Noroeste 45 Oeste 0.2 -- -- 85
2019-02-10 13:00:00 10.5 13 Noroeste 33 Norte 0.6 -- -- 89
2019-02-10 12:00:00 10.6 12 Noroeste 37 Norte 0 -- -- 88
2019-02-10 11:00:00 10.5 8 Norte 40 Noroeste 5 -- -- 89
2019-02-10 10:00:00 14.7 18 Noroeste 51 Noroeste 0 -- -- 66
2019-02-10 09:00:00 14.9 25 Oeste 52 Oeste 0 -- -- 60
2019-02-10 08:00:00 13.3 22 Oeste 50 Oeste 0 -- -- 68
2019-02-10 07:00:00 13.6 22 Oeste 48 Oeste 0 -- -- 68
2019-02-10 06:00:00 14.4 21 Sudoeste 49 Sudoeste 0 -- -- 57
2019-02-10 05:00:00 13.9 21 Sudoeste 44 Oeste 0 -- -- 57
2019-02-10 04:00:00 13.7 23 Sudoeste 44 Sudoeste 0 -- -- 56
2019-02-10 03:00:00 13.9 16 Sudoeste 32 Sudoeste 0 -- -- 55
2019-02-10 02:00:00 14.1 14 Sudoeste 35 Oeste 0 -- -- 53
2019-02-10 01:00:00 14.3 17 Sudoeste 46 Oeste 0 -- -- 53
2019-02-10 00:00:00 14.8 17 Sudoeste 40 Oeste 0 -- -- 53
2019-02-09 23:00:00 15 21 Oeste 35 Oeste 0 -- -- 53
2019-02-09 22:00:00 15.2 16 Sudoeste 31 Sudoeste 0 -- -- 53
2019-02-09 21:00:00 15.2 13 Oeste 30 Sudoeste 0 -- -- 53
2019-02-09 20:00:00 15.4 16 Oeste 33 Sudoeste 0 -- -- 52
2019-02-09 19:00:00 14.6 12 Sudoeste 31 Sudoeste 0 -- -- 55
2019-02-09 18:00:00 15.2 13 Oeste 30 Oeste 0 -- -- 54
2019-02-09 17:00:00 16 15 Oeste 37 Oeste 0 -- -- 52
2019-02-09 16:00:00 16.5 19 Oeste 35 Oeste 0 -- -- 52
2019-02-09 15:00:00 17 19 Oeste 32 Oeste 0 -- -- 53
2019-02-09 14:00:00 17.3 17 Oeste 35 Oeste 0 -- -- 53
2019-02-09 13:00:00 16.1 21 Sudoeste 35 Sudoeste 0 -- -- 57
2019-02-09 12:00:00 13.6 12 Sudoeste 23 Sudoeste 0 -- -- 69
2019-02-09 11:00:00 11.2 9 Sudoeste 17 Sur 0 -- -- 77
2019-02-09 10:00:00 7.5 6 Sudoeste 12 Sudoeste 0 -- -- 90
2019-02-09 09:00:00 5.6 8 Sudoeste 12 Sudoeste 0 -- -- 95
2019-02-09 08:00:00 5.4 7 Sudoeste 10 Sudoeste 0 -- -- 93
2019-02-09 07:00:00 5.5 7 Sudoeste 13 Sudoeste 0 -- -- 93
2019-02-09 06:00:00 6.4 6 Sudoeste 9 Sudoeste 0 -- -- 89
2019-02-09 05:00:00 6.8 6 Sudoeste 10 Sudoeste 0 -- -- 89
2019-02-09 04:00:00 7.3 7 Sudoeste 14 Oeste 0 -- -- 87
2019-02-09 03:00:00 6.4 6 Sudoeste 12 Oeste 0 -- -- 91
2019-02-09 02:00:00 6.9 8 Sudoeste 13 Sudoeste 0 -- -- 88
2019-02-09 01:00:00 7.2 13 Sudoeste 14 Sudoeste 0 -- -- 90
2019-02-09 00:00:00 7.6 9 Sudoeste 10 Sudoeste 0 -- -- 89
2019-02-08 23:00:00 7.6 7 Sudoeste 10 Sudoeste 0 -- -- 94
2019-02-08 22:00:00 7.8 9 Sudoeste 15 Oeste 0 -- -- 95
2019-02-08 21:00:00 8.4 3 Sur 13 Sudoeste 0 -- -- 94
2019-02-08 20:00:00 8.8 12 Sudoeste 17 Sudoeste 0 -- -- 94
2019-02-08 19:00:00 9.8 6 Sudoeste 8 Sudoeste 0 -- -- 88
2019-02-08 18:00:00 11.3 2 Este 21 Nordeste 0 -- -- 83
2019-02-08 17:00:00 12.6 14 Norte 27 Norte 0 -- -- 80
2019-02-08 16:00:00 13.3 16 Norte 23 Norte 0 -- -- 78
2019-02-08 15:00:00 13.9 18 Norte 24 Norte 0 -- -- 77
2019-02-08 14:00:00 16.1 8 Nordeste 21 Sudoeste 0 -- -- 65
2019-02-08 13:00:00 16.2 9 Sudoeste 22 Sudoeste 0 -- -- 55
2019-02-08 12:00:00 13.9 7 Sudoeste 15 Sudoeste 0 -- -- 70
2019-02-08 11:00:00 10.7 0 Calma 6 Oeste 0 -- -- 89
2019-02-08 10:00:00 6.6 7 Oeste 11 Sudoeste 0 -- -- 99
2019-02-08 09:00:00 3.3 9 Sudoeste 12 Sudoeste 0 -- -- 100
2019-02-08 08:00:00 3.3 10 Oeste 14 Sudoeste 0 -- -- 100
2019-02-08 07:00:00 3 9 Sudoeste 13 Sudoeste 0 -- -- 100
2019-02-08 06:00:00 2.8 6 Sudoeste 11 Sudoeste 0 -- -- 100
2019-02-08 05:00:00 2.7 8 Sudoeste 15 Sudoeste 0 -- -- 100
2019-02-08 04:00:00 2.8 3 Sur 10 Sudoeste 0 -- -- 100
2019-02-08 03:00:00 3.2 6 Sudoeste 10 Sudoeste 0 -- -- 100
2019-02-08 02:00:00 3.7 5 Sudoeste 9 Sudoeste 0 -- -- 99
2019-02-08 01:00:00 3.9 7 Sudoeste 11 Sudoeste 0 -- -- 99
2019-02-08 00:00:00 4.3 5 Sudoeste 8 Sudoeste 0 -- -- 98
2019-02-07 23:00:00 5 5 Sudoeste 10 Sudoeste 0 -- -- 97
2019-02-07 22:00:00 5.7 6 Sudoeste 8 Sudoeste 0 -- -- 95
2019-02-07 21:00:00 6.7 4 Sudoeste 9 Sudoeste 0 -- -- 94
2019-02-07 20:00:00 8 6 Sudoeste 10 Sudoeste 0 -- -- 89
2019-02-07 19:00:00 9.5 4 Sudoeste 8 Sudoeste 0 -- -- 83
2019-02-07 18:00:00 11.6 3 Oeste 8 Oeste 0 -- -- 75
2019-02-07 17:00:00 12.4 5 Oeste 15 Noroeste 0 -- -- 72
2019-02-07 16:00:00 12.8 4 Noroeste 15 Oeste 0 -- -- 73
2019-02-07 15:00:00 11.6 9 Noroeste 20 Norte 0 -- -- 76
2019-02-07 14:00:00 11.6 10 Norte 23 Norte 0 -- -- 79
2019-02-07 13:00:00 12.3 8 Norte 23 Noroeste 0 -- -- 82
2019-02-07 12:00:00 11.6 12 Noroeste 24 Noroeste 0 -- -- 84
2019-02-07 11:00:00 11.6 5 Noroeste 18 Oeste 0 -- -- 89
2019-02-07 10:00:00 9.1 6 Oeste 15 Sudoeste 0 -- -- 96
2019-02-07 09:00:00 8 8 Sudoeste 14 Sudoeste 0 -- -- 98
2019-02-07 08:00:00 7.2 9 Sudoeste 14 Sudoeste 0 -- -- 100
2019-02-07 07:00:00 6.9 3 Oeste 11 Sur 0 -- -- 99
2019-02-07 06:00:00 6.9 5 Sudoeste 10 Sudoeste 0 -- -- 99
2019-02-07 05:00:00 7.2 4 Sudoeste 11 Sudoeste 0 -- -- 99
2019-02-07 04:00:00 7.6 10 Sudoeste 12 Sudoeste 0 -- -- 98
2019-02-07 03:00:00 8.6 5 Sudoeste 13 Sur 0 -- -- 95
2019-02-07 02:00:00 8.8 10 Sudoeste 13 Sudoeste 0 -- -- 97
2019-02-07 01:00:00 8.5 8 Sudoeste 12 Sudoeste 0 -- -- 99
2019-02-07 00:00:00 8.2 2 Sudoeste 5 Sudoeste 0 -- -- 99
2019-02-06 23:00:00 8.4 3 Sudoeste 8 Nordeste 0 -- -- 99
2019-02-06 22:00:00 9.2 3 Oeste 7 Norte 0 -- -- 95
2019-02-06 21:00:00 9.8 3 Sur 6 Sur 0 -- -- 97
2019-02-06 20:00:00 10.8 3 Sudoeste 7 Norte 0 -- -- 96
2019-02-06 19:00:00 11.2 4 Norte 14 Nordeste 0 -- -- 94
2019-02-06 18:00:00 12.6 10 Nordeste 18 Nordeste 0 -- -- 89
2019-02-06 17:00:00 14.7 6 Norte 14 Norte 0 -- -- 81
2019-02-06 16:00:00 15.2 6 Nordeste 12 Nordeste 0 -- -- 78
2019-02-06 15:00:00 16.2 8 Norte 14 Norte 0 -- -- 76
2019-02-06 14:00:00 18 4 Sur 11 Sur 0 -- -- 63
2019-02-06 13:00:00 15.9 0 Calma 7 Oeste 0 -- -- 73
2019-02-06 12:00:00 13.7 4 Sudoeste 10 Sur 0 -- -- 85
2019-02-06 11:00:00 10.3 3 Sudoeste 8 Sudoeste 0 -- -- 100
2019-02-06 10:00:00 7 3 Sur 13 Sudoeste 0 -- -- 100
2019-02-06 09:00:00 4.1 6 Sudoeste 10 Sudoeste 0 -- -- 100
2019-02-06 08:00:00 4 8 Sudoeste 10 Sudoeste 0 -- -- 100
2019-02-06 07:00:00 4.3 6 Sudoeste 9 Oeste 0 -- -- 100
2019-02-06 06:00:00 4.9 6 Sudoeste 10 Sudoeste 0 -- -- 100
2019-02-06 05:00:00 5.4 6 Sudoeste 9 Oeste 0 -- -- 100
2019-02-06 04:00:00 6.1 7 Oeste 8 Oeste 0 -- -- 100
2019-02-06 03:00:00 6.7 4 Sudoeste 8 Sudoeste 0 -- -- 100
2019-02-06 02:00:00 7.5 7 Sudoeste 8 Sudoeste 0 -- -- 98
2019-02-06 01:00:00 8.7 3 Sudoeste 7 Oeste 0 -- -- 97
2019-02-06 00:00:00 9.8 2 Sur 3 Sur 0 -- -- 94
2019-02-05 23:00:00 10.6 0 Calma 3 Sudeste 0 -- -- 93
2019-02-05 22:00:00 11.2 0 Calma 3 Nordeste 0 -- -- 91
2019-02-05 21:00:00 11.7 0 Calma 3 Este 0 -- -- 87
2019-02-05 20:00:00 12.3 0 Calma -- -- 0 -- -- 84
2019-02-05 19:00:00 12.9 0 Calma 8 Nordeste 0 -- -- 79
2019-02-05 18:00:00 13.4 5 Nordeste 12 Norte 0 -- -- 78
2019-02-05 17:00:00 14.2 7 Nordeste 16 Nordeste 0 -- -- 77
2019-02-05 16:00:00 14.5 7 Norte 13 Nordeste 0 -- -- 75
2019-02-05 15:00:00 15.5 6 Nordeste 13 Noroeste 0 -- -- 72
2019-02-05 14:00:00 15.1 8 Noroeste 21 Norte 0 -- -- 71
2019-02-05 13:00:00 14.7 9 Oeste 19 Oeste 0 -- -- 74
2019-02-05 12:00:00 13.2 8 Sudoeste 14 Sudoeste 0.2 -- -- 83
2019-02-05 11:00:00 10.9 10 Sudoeste 14 Sudoeste 0 -- -- 92
2019-02-05 10:00:00 9.4 5 Sudoeste 12 Sur 0 -- -- 97
2019-02-05 09:00:00 8.5 5 Sur 13 Sudoeste 0 -- -- 98
2019-02-05 08:00:00 8.4 7 Sudoeste 14 Sudoeste 0 -- -- 97
2019-02-05 07:00:00 8.6 11 Sudoeste 19 Sudoeste 0 -- -- 95
2019-02-05 06:00:00 8.5 10 Sudoeste 16 Sudoeste 0 -- -- 97
2019-02-05 05:00:00 8.3 8 Sudoeste 13 Sudoeste 0 -- -- 98
2019-02-05 04:00:00 8.4 9 Sudoeste 13 Sudoeste 0 -- -- 97
2019-02-05 03:00:00 8.6 10 Sudoeste 13 Sudoeste 0 -- -- 98
2019-02-05 02:00:00 8.2 6 Sudoeste 11 Sudoeste 0 -- -- 99
2019-02-05 01:00:00 8 7 Sudoeste 12 Sudoeste 0 -- -- 98
2019-02-05 00:00:00 8.2 8 Sudoeste 18 Sudoeste 0 -- -- 95
2019-02-04 23:00:00 9 8 Sudoeste 14 Sudoeste 0 -- -- 88
2019-02-04 22:00:00 8.6 3 Oeste 8 Sudoeste 0 -- -- 90
2019-02-04 21:00:00 8.6 6 Sudoeste 10 Sudoeste 0 -- -- 90
2019-02-04 20:00:00 8.7 4 Sudoeste 19 Sudoeste 0 -- -- 89
2019-02-04 19:00:00 9.5 7 Sudoeste 20 Oeste 0 -- -- 84
2019-02-04 18:00:00 10.2 6 Sur 12 Sudoeste 0 -- -- 72
2019-02-04 17:00:00 10.8 2 Sudeste 5 Sur 0 -- -- 75
2019-02-04 16:00:00 11 2 Sudoeste 8 Sudoeste 0 -- -- 67
2019-02-04 15:00:00 11.4 2 Oeste 5 Sur 0 -- -- 68
2019-02-04 14:00:00 10.6 3 Sur 10 Sudoeste 0 -- -- 69
2019-02-04 13:00:00 8.9 4 Sudoeste 9 Sudoeste 0 -- -- 84
2019-02-04 12:00:00 6.9 5 Sudoeste 9 Sudoeste 0 -- -- 94
2019-02-04 11:00:00 5.1 6 Sudoeste 10 Sudoeste 0 -- -- 100
2019-02-04 10:00:00 2.3 7 Sudoeste 12 Sudoeste 0.2 -- -- 100
2019-02-04 09:00:00 1.2 7 Sudoeste 11 Sudoeste 0 -- -- 100
2019-02-04 08:00:00 0.2 5 Sur 14 Sudoeste 0 -- -- 100
2019-02-04 07:00:00 -0.1 8 Sudoeste 14 Sudoeste 0 -- -- 100
2019-02-04 06:00:00 0.5 6 Sudoeste 13 Sudoeste 0 -- -- 100
2019-02-04 05:00:00 0.6 4 Sudoeste 11 Sudoeste 0 -- -- 100
2019-02-04 04:00:00 0.9 5 Sudoeste 12 Sudoeste 0 -- -- 100
2019-02-04 03:00:00 1.3 9 Sudoeste 12 Sudoeste 0 -- -- 100
2019-02-04 02:00:00 2 9 Sudoeste 13 Sudoeste 0 -- -- 100
2019-02-04 01:00:00 2.7 7 Sudoeste 9 Sudoeste 0 -- -- 100
2019-02-04 00:00:00 3.5 4 Sur 8 Sudoeste 0 -- -- 100
2019-02-03 23:00:00 4.1 4 Sur 9 Sur 0.2 -- -- 100
2019-02-03 22:00:00 4.5 4 Sudoeste 8 Sur 0.4 -- -- 99
2019-02-03 21:00:00 4.3 5 Sudoeste 10 Oeste 0.2 -- -- 98
2019-02-03 20:00:00 4.9 4 Sur 9 Oeste 0 -- -- 98
2019-02-03 19:00:00 5.3 9 Oeste 10 Oeste 0.2 -- -- 95
2019-02-03 18:00:00 6.7 6 Oeste 13 Sudoeste 0 -- -- 89
2019-02-03 17:00:00 7.7 0 Calma 25 Este 0 -- -- 83
2019-02-03 16:00:00 9.4 15 Nordeste 28 Este 0 -- -- 71
2019-02-03 15:00:00 9.7 17 Norte 30 Norte 0 -- -- 75
2019-02-03 14:00:00 8.3 13 Norte 28 Norte 0 -- -- 80
2019-02-03 13:00:00 8 13 Nordeste 27 Nordeste 0.2 -- -- 81
2019-02-03 12:00:00 6 17 Norte 34 Nordeste 2.4 -- -- 85
2019-02-03 11:00:00 6.4 21 Este 33 Norte 0.6 -- -- 84
2019-02-03 10:00:00 4.2 5 Sudoeste 15 Oeste 0 -- -- 96
2019-02-03 09:00:00 3.4 6 Oeste 11 Sudoeste 0.4 -- -- 95
2019-02-03 08:00:00 3.1 7 Sudoeste 18 Oeste 2 -- -- 97
2019-02-03 07:00:00 3.6 10 Sudoeste 14 Sudoeste 0.2 -- -- 93
2019-02-03 06:00:00 4.6 7 Sudoeste 42 Nordeste 0.6 -- -- 87
2019-02-03 05:00:00 6.7 17 Este 31 Nordeste 0 -- -- 77
2019-02-03 04:00:00 7.1 13 Nordeste 46 Nordeste 0 -- -- 62
2019-02-03 03:00:00 7.9 19 Nordeste 45 Nordeste 0 -- -- 61
2019-02-03 02:00:00 7.9 18 Nordeste 40 Nordeste 0 -- -- 63
2019-02-03 01:00:00 7.2 16 Este 40 Sudeste 0 -- -- 71
2019-02-03 00:00:00 7.2 17 Nordeste 45 Nordeste 0 -- -- 72
2019-02-02 23:00:00 5.3 9 Norte 56 Nordeste 1.4 -- -- 85
2019-02-02 22:00:00 7.4 32 Norte 53 Nordeste 0 -- -- 70
2019-02-02 21:00:00 6.2 8 Nordeste 49 Nordeste 0.2 -- -- 82
2019-02-02 20:00:00 7.1 19 Nordeste 39 Norte 0 -- -- 70
2019-02-02 19:00:00 6.9 24 Nordeste 59 Nordeste 0.2 -- -- 77
2019-02-02 18:00:00 8.9 28 Nordeste 53 Nordeste 0 -- -- 64
2019-02-02 17:00:00 9 15 Norte 48 Norte 0 -- -- 68
2019-02-02 16:00:00 8 17 Norte 32 Norte 0 -- -- 73
2019-02-02 15:00:00 6.3 22 Norte 59 Norte 0.6 -- -- 84
2019-02-02 14:00:00 9.8 28 Nordeste 60 Nordeste 0 -- -- 56
2019-02-02 13:00:00 8.5 24 Nordeste 59 Norte 0 -- -- 61
2019-02-02 12:00:00 7.7 30 Nordeste 70 Nordeste 0.8 -- -- 69
2019-02-02 11:00:00 7.3 28 Norte 69 Nordeste 0 -- -- 74
2019-02-02 10:00:00 7.2 22 Nordeste 75 Norte 0 -- -- 85
2019-02-02 09:00:00 7.5 35 Norte 67 Norte 0.2 -- -- 72
2019-02-02 08:00:00 7.5 27 Norte 69 Norte 0.2 -- -- 79
2019-02-02 07:00:00 7.5 31 Norte 71 Norte 0.8 -- -- 86
2019-02-02 06:00:00 7.6 23 Norte 59 Nordeste 2.8 -- -- 91
2019-02-02 05:00:00 7 15 Norte 46 Norte 2.8 -- -- 96
2019-02-02 04:00:00 6.2 7 Sudoeste 33 Oeste 2.8 -- -- 94
2019-02-02 03:00:00 7 18 Noroeste 53 Noroeste 0.4 -- -- 89
2019-02-02 02:00:00 6.7 14 Noroeste 32 Oeste 0.2 -- -- 91
2019-02-02 01:00:00 6.2 14 Oeste 21 Oeste 0 -- -- 89
2019-02-02 00:00:00 6.1 12 Oeste 25 Sudoeste 0 -- -- 89
2019-02-01 23:00:00 6.6 12 Oeste 35 Oeste 0.2 -- -- 90
2019-02-01 22:00:00 5 6 Sur 12 Oeste 0 -- -- 99
2019-02-01 21:00:00 5.2 8 Sudoeste 12 Sudoeste 0 -- -- 98
2019-02-01 20:00:00 5.3 2 Nordeste 12 Norte 0.2 -- -- 96
2019-02-01 19:00:00 5.6 5 Oeste 12 Oeste 0 -- -- 94
2019-02-01 18:00:00 6.3 10 Sudoeste 17 Sudoeste 0 -- -- 94
2019-02-01 17:00:00 7 10 Oeste 30 Norte 1.2 -- -- 86
2019-02-01 16:00:00 9.3 14 Sudoeste 35 Oeste 0.2 -- -- 77
2019-02-01 15:00:00 11 9 Noroeste 33 Oeste 0.2 -- -- 68
2019-02-01 14:00:00 12 18 Sudoeste 32 Sudoeste 0 -- -- 62
2019-02-01 13:00:00 12.9 15 Sudoeste 28 Oeste 0 -- -- 62
2019-02-01 12:00:00 10.9 12 Oeste 39 Oeste 0 -- -- 67
2019-02-01 11:00:00 10.9 17 Oeste 41 Sudoeste 0 -- -- 68
2019-02-01 10:00:00 10.5 20 Oeste 43 Oeste 0 -- -- 71
2019-02-01 09:00:00 7.8 11 Sudoeste 21 Sudoeste 0 -- -- 89
2019-02-01 08:00:00 6.3 13 Sudoeste 26 Sudoeste 0 -- -- 100
2019-02-01 07:00:00 6.6 3 Sudoeste 8 Noroeste 0 -- -- 100
2019-02-01 06:00:00 7.8 3 Sur 11 Sudoeste 0 -- -- 100
2019-02-01 05:00:00 8.3 2 Sudoeste 10 Sudoeste 0 -- -- 100
2019-02-01 04:00:00 8.8 9 Sudoeste 12 Sudoeste 0 -- -- 100
2019-02-01 03:00:00 9 7 Oeste 11 Noroeste 0.2 -- -- 100
2019-02-01 02:00:00 9.1 2 Sudoeste 6 Sudoeste 0 -- -- 100
2019-02-01 01:00:00 9.3 4 Sudoeste 14 Sudoeste 0.2 -- -- 100
2019-02-01 00:00:00 9.4 6 Sudoeste 9 Oeste 0 -- -- 100
2019-01-31 23:00:00 9.5 0 Calma 12 Sudoeste 0.2 -- -- 100
2019-01-31 22:00:00 9.7 7 Sudoeste 15 Sudoeste 3.4 -- -- 100
2019-01-31 21:00:00 10 10 Sudoeste 35 Noroeste 1.8 -- -- 98
2019-01-31 20:00:00 10.4 9 Noroeste 28 Noroeste 3 -- -- 96
2019-01-31 19:00:00 10.7 7 Sur 34 Norte 5.6 -- -- 98
2019-01-31 18:00:00 11.9 14 Norte 39 Norte 9.4 -- -- 97
2019-01-31 17:00:00 13.8 0 Calma 17 Norte 1.2 -- -- 92
2019-01-31 16:00:00 14.7 10 Nordeste 19 Nordeste 0 -- -- 86
2019-01-31 15:00:00 16.1 7 Sudoeste 20 Oeste 0 -- -- 76
2019-01-31 14:00:00 15.4 13 Oeste 27 Sudoeste 0 -- -- 79
2019-01-31 13:00:00 13.7 5 Sur 12 Sudoeste 0 -- -- 97
2019-01-31 12:00:00 12.6 2 Sudeste 8 Oeste 0.2 -- -- 99
2019-01-31 11:00:00 11.7 7 Sudoeste 23 Sudoeste 0.8 -- -- 99
2019-01-31 10:00:00 11.1 12 Sudoeste 19 Sudoeste 0.6 -- -- 98
2019-01-31 09:00:00 10.2 9 Sudoeste 20 Sudoeste 2.8 -- -- 100
2019-01-31 08:00:00 9.8 6 Sur 12 Sudoeste 4 -- -- 100
2019-01-31 07:00:00 9.6 4 Sudoeste 12 Oeste 5.6 -- -- 100
2019-01-31 06:00:00 9.6 8 Sudoeste 19 Oeste 2.2 -- -- 99
2019-01-31 05:00:00 9.3 14 Sudoeste 23 Sudoeste 2 -- -- 98
2019-01-31 04:00:00 8.8 8 Sudoeste 19 Sudoeste 1.4 -- -- 97
2019-01-31 03:00:00 8.3 8 Sudoeste 15 Sudoeste 1 -- -- 97
2019-01-31 02:00:00 8.3 8 Sudoeste 26 Sudoeste 1.2 -- -- 94
2019-01-31 01:00:00 7.9 9 Sudoeste 24 Sudoeste 1.4 -- -- 96
2019-01-31 00:00:00 7.5 6 Sudoeste 17 Sur 1.4 -- -- 97
2019-01-30 23:00:00 7.5 7 Sur 19 Sudoeste 2.6 -- -- 96
2019-01-30 22:00:00 7.9 7 Sudoeste 22 Sudoeste 1 -- -- 92
2019-01-30 21:00:00 8.7 15 Sudoeste 23 Oeste 0.2 -- -- 83
2019-01-30 20:00:00 9.5 13 Oeste 29 Noroeste 0 -- -- 72
2019-01-30 19:00:00 8 5 Sudoeste 8 Sudoeste 0 -- -- 85
2019-01-30 18:00:00 9.3 4 Sudoeste 6 Sudoeste 0 -- -- 82
2019-01-30 17:00:00 10.6 2 Sudoeste 10 Sur 0 -- -- 74
2019-01-30 16:00:00 11.1 4 Sudoeste 13 Sudoeste 0 -- -- 67
2019-01-30 15:00:00 10.7 5 Oeste 23 Sudoeste 0 -- -- 66
2019-01-30 14:00:00 10.7 9 Oeste 24 Sudoeste 0 -- -- 71
2019-01-30 13:00:00 10 10 Sudoeste 23 Sudoeste 0 -- -- 80
2019-01-30 12:00:00 8.3 11 Sudoeste 21 Sudoeste 0 -- -- 90
2019-01-30 11:00:00 6.4 9 Sudoeste 21 Sudoeste 0 -- -- 97
2019-01-30 10:00:00 6 10 Oeste 28 Sudoeste 2.4 -- -- 96
2019-01-30 09:00:00 5.8 6 Sudoeste 38 Oeste 2 -- -- 96
2019-01-30 08:00:00 5.6 6 Oeste 18 Norte 5.4 -- -- 97
2019-01-30 07:00:00 6.1 5 Oeste 29 Oeste 3 -- -- 94
2019-01-30 06:00:00 6.2 10 Oeste 32 Oeste 2 -- -- 94
2019-01-30 05:00:00 6.4 4 Oeste 28 Oeste 4.8 -- -- 94
2019-01-30 04:00:00 6.8 17 Oeste 53 Noroeste 0.6 -- -- 89
2019-01-30 03:00:00 7.2 12 Oeste 31 Noroeste 0.4 -- -- 85
2019-01-30 02:00:00 7.7 18 Norte 44 Noroeste 1.2 -- -- 80
2019-01-30 01:00:00 9 18 Nordeste 69 Norte 0 -- -- 70
2019-01-30 00:00:00 8.7 34 Norte 76 Nordeste 0 -- -- 72
2019-01-29 23:00:00 8.2 25 Norte 67 Norte 0.8 -- -- 75
2019-01-29 22:00:00 8 28 Norte 75 Norte 1.4 -- -- 78
2019-01-29 21:00:00 9.2 33 Norte 69 Norte 0.8 -- -- 72
2019-01-29 20:00:00 8.3 17 Norte 69 Norte 0.8 -- -- 82
2019-01-29 19:00:00 8.5 25 Norte 62 Norte 0.8 -- -- 80
2019-01-29 18:00:00 8.8 17 Norte 75 Norte 2 -- -- 83
2019-01-29 17:00:00 10 11 Norte 63 Norte 0.8 -- -- 86
2019-01-29 16:00:00 10.1 20 Norte 53 Noroeste 2.4 -- -- 87
2019-01-29 15:00:00 9.6 12 Oeste 44 Oeste 2.6 -- -- 92
2019-01-29 14:00:00 8.9 8 Sudoeste 33 Oeste 2 -- -- 93
2019-01-29 13:00:00 8.9 9 Sudoeste 26 Sudoeste 1.2 -- -- 93
2019-01-29 12:00:00 8.9 13 Oeste 24 Sudoeste 0.2 -- -- 86
2019-01-29 11:00:00 7.9 7 Sudoeste 15 Sudoeste 0.4 -- -- 100
2019-01-29 10:00:00 7 6 Sur 12 Sur 0.8 -- -- 100
2019-01-29 09:00:00 6.9 5 Sudoeste 12 Sudoeste 1.2 -- -- 100
2019-01-29 08:00:00 6.9 5 Oeste 10 Sudoeste 0 -- -- 100
2019-01-29 07:00:00 7 8 Sudoeste 12 Sudoeste 0 -- -- 100
2019-01-29 06:00:00 7.3 9 Sudoeste 14 Sudoeste 0.8 -- -- 100
2019-01-29 05:00:00 7.5 8 Sudoeste 19 Noroeste 1.2 -- -- 98
2019-01-29 04:00:00 7.8 9 Noroeste 21 Noroeste 1.4 -- -- 99
2019-01-29 03:00:00 7.6 10 Sudoeste 17 Sudoeste 0.8 -- -- 99
2019-01-29 02:00:00 7.6 3 Este 22 Noroeste 0.6 -- -- 97
2019-01-29 01:00:00 8 7 Sudoeste 32 Norte 0.6 -- -- 92
2019-01-29 00:00:00 8.3 8 Noroeste 26 Norte 0.2 -- -- 92
2019-01-28 23:00:00 8.5 14 Norte 30 Norte 1.2 -- -- 86
2019-01-28 22:00:00 9.7 20 Norte 35 Norte 0.4 -- -- 82
2019-01-28 21:00:00 9.7 13 Norte 44 Norte 0.2 -- -- 84
2019-01-28 20:00:00 9.6 24 Norte 51 Norte 0 -- -- 83
2019-01-28 19:00:00 8.9 15 Nordeste 45 Nordeste 2.8 -- -- 90
2019-01-28 18:00:00 9 20 Norte 60 Norte 1.2 -- -- 88
2019-01-28 17:00:00 10.7 37 Norte 65 Norte 0 -- -- 76
2019-01-28 16:00:00 11.9 42 Norte 75 Norte 0 -- -- 72
2019-01-28 15:00:00 11.4 33 Norte 73 Norte 0.4 -- -- 73
2019-01-28 14:00:00 11.8 33 Norte 64 Nordeste 0 -- -- 71
2019-01-28 13:00:00 10.4 44 Norte 76 Nordeste 0.8 -- -- 77
2019-01-28 12:00:00 9.5 39 Norte 74 Nordeste 0.6 -- -- 82
2019-01-28 11:00:00 11.4 42 Norte 65 Norte 0 -- -- 76
2019-01-28 10:00:00 11 32 Norte 64 Nordeste 0.2 -- -- 75
2019-01-28 09:00:00 10.2 38 Norte 71 Nordeste 1.4 -- -- 88
2019-01-28 08:00:00 10.1 38 Nordeste 78 Nordeste 4 -- -- 88
2019-01-28 07:00:00 10.7 21 Norte 43 Norte 1.4 -- -- 88
2019-01-28 06:00:00 10.5 17 Norte 60 Noroeste 0.4 -- -- 89
2019-01-28 05:00:00 9.6 20 Norte 53 Norte 2.6 -- -- 94
2019-01-28 04:00:00 8.4 9 Noroeste 40 Noroeste 1.8 -- -- 93
2019-01-28 03:00:00 7.8 14 Oeste 35 Sudoeste 0.8 -- -- 92
2019-01-28 02:00:00 7.9 9 Noroeste 32 Noroeste 1 -- -- 91
2019-01-28 01:00:00 7.6 6 Sur 30 Oeste 1.4 -- -- 92
2019-01-28 00:00:00 8 14 Noroeste 40 Noroeste 1 -- -- 89
2019-01-27 23:00:00 8 16 Norte 54 Nordeste 2.6 -- -- 85
2019-01-27 22:00:00 7.8 8 Norte 53 Norte 3 -- -- 91
2019-01-27 21:00:00 8.6 15 Norte 37 Norte 1 -- -- 84
2019-01-27 20:00:00 8.6 20 Nordeste 51 Norte 0.2 -- -- 80
2019-01-27 19:00:00 9.9 28 Norte 55 Nordeste 0 -- -- 72
2019-01-27 18:00:00 10 23 Norte 52 Nordeste 0 -- -- 65
2019-01-27 17:00:00 10.1 31 Nordeste 61 Nordeste 0 -- -- 68
2019-01-27 16:00:00 10.6 30 Nordeste 69 Norte 0 -- -- 68
2019-01-27 15:00:00 9.9 34 Nordeste 57 Norte 1.4 -- -- 74
2019-01-27 14:00:00 9.1 20 Norte 83 Nordeste 1.2 -- -- 78
2019-01-27 13:00:00 9.9 29 Nordeste 71 Nordeste 0.2 -- -- 76
2019-01-27 12:00:00 9.6 29 Nordeste 59 Norte 2.6 -- -- 79
2019-01-27 11:00:00 8.8 20 Norte 59 Norte 1.6 -- -- 87
2019-01-27 10:00:00 8.5 13 Noroeste 47 Norte 1.6 -- -- 88
2019-01-27 09:00:00 8.4 13 Oeste 50 Noroeste 1 -- -- 88
2019-01-27 08:00:00 8.7 6 Sur 39 Noroeste 0.4 -- -- 84
2019-01-27 07:00:00 9.3 6 Oeste 30 Oeste 0.2 -- -- 85
2019-01-27 06:00:00 9.6 18 Norte 36 Norte 0.6 -- -- 87
2019-01-27 05:00:00 10 20 Norte 56 Norte 1.2 -- -- 86
2019-01-27 04:00:00 9.5 13 Noroeste 35 Norte 1.2 -- -- 99
2019-01-27 03:00:00 6.3 12 Sudoeste 18 Oeste 0 -- -- 100
2019-01-27 02:00:00 5.5 3 Oeste 15 Oeste 0 -- -- 100
2019-01-27 01:00:00 5.4 15 Oeste 19 Oeste 0 -- -- 100
2019-01-27 00:00:00 5.7 8 Sudoeste 15 Sudoeste 0 -- -- 100
2019-01-26 23:00:00 5.8 8 Sudoeste 12 Oeste 0 -- -- 100
2019-01-26 22:00:00 5.9 9 Oeste 15 Oeste 0 -- -- 98
2019-01-26 21:00:00 6.7 5 Sudoeste 11 Oeste 0 -- -- 97
2019-01-26 20:00:00 7.8 7 Oeste 12 Sudoeste 0 -- -- 95
2019-01-26 19:00:00 9.4 4 Sudoeste 8 Nordeste 0 -- -- 90
2019-01-26 18:00:00 10.6 5 Nordeste 20 Nordeste 0 -- -- 87
2019-01-26 17:00:00 11.9 14 Norte 22 Nordeste 0 -- -- 77
2019-01-26 16:00:00 14.4 9 Nordeste 14 Nordeste 0 -- -- 71
2019-01-26 15:00:00 14.8 3 Sudoeste 10 Noroeste 0 -- -- 68
2019-01-26 14:00:00 14.1 6 Oeste 12 Oeste 0 -- -- 71
2019-01-26 13:00:00 13.4 5 Sudoeste 10 Oeste 0 -- -- 75
2019-01-26 12:00:00 11.7 4 Sudoeste 10 Sudoeste 0 -- -- 97
2019-01-26 11:00:00 10 5 Sudoeste 8 Sudoeste 0 -- -- 100
2019-01-26 10:00:00 9.1 3 Sudoeste 7 Sudoeste 0 -- -- 100
2019-01-26 09:00:00 8.7 5 Sudoeste 9 Sudoeste 0 -- -- 100
2019-01-26 08:00:00 8.8 6 Sudoeste 8 Sudoeste 0 -- -- 100
2019-01-26 07:00:00 8.9 5 Sudoeste 9 Sudoeste 0 -- -- 100
2019-01-26 06:00:00 9.1 0 Calma 8 Sudoeste 0.2 -- -- 100
2019-01-26 05:00:00 9.2 4 Sudoeste 9 Sur 0 -- -- 100
2019-01-26 04:00:00 9.4 8 Sudoeste 15 Sudoeste 0 -- -- 100
2019-01-26 03:00:00 9.4 6 Sudoeste 9 Oeste 0.4 -- -- 100
2019-01-26 02:00:00 9.4 5 Sudoeste 8 Sudoeste 0 -- -- 100
2019-01-26 01:00:00 9.4 6 Sudoeste 8 Sudoeste 0.4 -- -- 100
2019-01-26 00:00:00 9.5 3 Sudoeste 12 Sur 0.4 -- -- 100
2019-01-25 23:00:00 9.6 6 Oeste 9 Sudoeste 0.6 -- -- 100
2019-01-25 22:00:00 9.7 4 Oeste 8 Sudoeste 0 -- -- 100
2019-01-25 21:00:00 9.9 2 Sudeste 10 Nordeste 0.2 -- -- 99
2019-01-25 20:00:00 10.1 3 Este 25 Nordeste 0 -- -- 98
2019-01-25 19:00:00 10.8 10 Nordeste 22 Norte 0 -- -- 92
2019-01-25 18:00:00 11 4 Norte 33 Norte 0 -- -- 89
2019-01-25 17:00:00 11.7 21 Norte 32 Norte 0 -- -- 82
2019-01-25 16:00:00 11.6 20 Norte 40 Norte 0 -- -- 86
2019-01-25 15:00:00 12 18 Norte 36 Nordeste 0 -- -- 82
2019-01-25 14:00:00 11.2 15 Norte 46 Nordeste 0.2 -- -- 88
2019-01-25 13:00:00 11.1 18 Norte 35 Nordeste 0 -- -- 94
2019-01-25 12:00:00 10.8 13 Norte 26 Nordeste 0.4 -- -- 98
2019-01-25 11:00:00 10.8 10 Nordeste 33 Nordeste 0.4 -- -- 97
2019-01-25 10:00:00 10.8 19 Norte 36 Nordeste 0 -- -- 91
2019-01-25 09:00:00 10.3 6 Nordeste 37 Nordeste 0.6 -- -- 97
2019-01-25 08:00:00 10.4 18 Nordeste 35 Norte 0 -- -- 95
2019-01-25 07:00:00 10.4 15 Nordeste 36 Nordeste 0.2 -- -- 98
2019-01-25 06:00:00 10.8 17 Nordeste 35 Nordeste 0.2 -- -- 96
2019-01-25 05:00:00 10.6 11 Nordeste 37 Norte 0.4 -- -- 96
2019-01-25 04:00:00 10.7 21 Nordeste 46 Nordeste 1 -- -- 94
2019-01-25 03:00:00 10.6 15 Nordeste 30 Norte 0.2 -- -- 100
2019-01-25 02:00:00 8.2 6 Oeste 18 Norte 0.6 -- -- 100
2019-01-25 01:00:00 7.6 3 Sur 8 Sudoeste 0.4 -- -- 100
2019-01-25 00:00:00 7.5 3 Sudoeste 8 Sudoeste 0.2 -- -- 100
2019-01-24 23:00:00 7.5 3 Oeste 4 Sudoeste 0.2 -- -- 100
2019-01-24 22:00:00 7.4 3 Sudoeste 6 Sudoeste 0.4 -- -- 100
2019-01-24 21:00:00 7.3 0 Calma 6 Sudoeste 0 -- -- 100
2019-01-24 20:00:00 7.3 0 Calma 5 Oeste 0.2 -- -- 100
2019-01-24 19:00:00 7.2 3 Oeste 4 Oeste 0.2 -- -- 100
2019-01-24 18:00:00 7.3 2 Sudoeste 3 Sudoeste 0.8 -- -- 100
2019-01-24 17:00:00 7.4 3 Noroeste 5 Sudoeste 0.2 -- -- 100
2019-01-24 16:00:00 7.5 2 Sudoeste 4 Oeste 0.4 -- -- 100
2019-01-24 15:00:00 7.5 2 Sur 7 Sur 0.8 -- -- 100
2019-01-24 14:00:00 7.4 2 Sur 8 Oeste 1 -- -- 100
2019-01-24 13:00:00 6.9 4 Oeste 8 Oeste 1.2 -- -- 100
2019-01-24 12:00:00 6.9 3 Sudoeste 6 Norte 0.4 -- -- 100
2019-01-24 11:00:00 6.7 4 Norte 6 Sudeste 1.2 -- -- 100
2019-01-24 10:00:00 7.2 3 Este 6 Sudeste 1.6 -- -- 100
2019-01-24 09:00:00 7.2 5 Nordeste 17 Nordeste 1.2 -- -- 100
2019-01-24 08:00:00 7.2 7 Nordeste 17 Norte 1.6 -- -- 99
2019-01-24 07:00:00 7.4 8 Nordeste 26 Nordeste 0.8 -- -- 98
2019-01-24 06:00:00 7.5 13 Este 27 Este 2 -- -- 97
2019-01-24 05:00:00 7.5 10 Este 27 Nordeste 0.8 -- -- 94
2019-01-24 04:00:00 7.8 7 Nordeste 27 Nordeste 0 -- -- 93
2019-01-24 03:00:00 7.7 17 Nordeste 36 Este 0.4 -- -- 94
2019-01-24 02:00:00 7.9 19 Nordeste 36 Nordeste 2.4 -- -- 95
2019-01-24 01:00:00 7.8 15 Nordeste 39 Este 2 -- -- 96
2019-01-24 00:00:00 8.3 17 Nordeste 47 Nordeste 1.4 -- -- 94
2019-01-23 23:00:00 8.9 24 Nordeste 55 Nordeste 1 -- -- 88
2019-01-23 22:00:00 9.1 21 Nordeste 58 Nordeste 0.4 -- -- 89
2019-01-23 21:00:00 9.6 24 Nordeste 58 Nordeste 1 -- -- 87
2019-01-23 20:00:00 9.5 19 Nordeste 57 Nordeste 1 -- -- 91
2019-01-23 19:00:00 9.9 24 Nordeste 48 Este 0.2 -- -- 86
2019-01-23 18:00:00 10.3 29 Norte 56 Nordeste 0 -- -- 82
2019-01-23 17:00:00 9.9 26 Norte 49 Norte 0.6 -- -- 86
2019-01-23 16:00:00 9.8 20 Norte 47 Norte 0.4 -- -- 87
2019-01-23 15:00:00 8.8 23 Norte 49 Nordeste 0.8 -- -- 93
2019-01-23 14:00:00 9.3 20 Norte 55 Nordeste 3.4 -- -- 95
2019-01-23 13:00:00 9.6 22 Nordeste 45 Nordeste 1.6 -- -- 93
2019-01-23 12:00:00 10 32 Nordeste 63 Norte 2.4 -- -- 89
2019-01-23 11:00:00 10.3 31 Norte 73 Nordeste 0.6 -- -- 87
2019-01-23 10:00:00 11.2 32 Norte 53 Norte 0.2 -- -- 82
2019-01-23 09:00:00 10.8 28 Nordeste 69 Norte 0.2 -- -- 87
2019-01-23 08:00:00 10.8 42 Norte 95 Norte 0.6 -- -- 88
2019-01-23 07:00:00 11.6 46 Norte 79 Norte 0.2 -- -- 87
2019-01-23 06:00:00 10.8 26 Norte 51 Nordeste 4.6 -- -- 100
2019-01-23 05:00:00 7.2 17 Sudoeste 30 Sudoeste 6.2 -- -- 100
2019-01-23 04:00:00 8.3 13 Sudoeste 36 Noroeste 5.8 -- -- 99
2019-01-23 03:00:00 8.3 11 Sudoeste 21 Noroeste 2 -- -- 98
2019-01-23 02:00:00 8.5 9 Oeste 34 Norte 0.6 -- -- 98
2019-01-23 01:00:00 8.6 4 Oeste 31 Noroeste 1 -- -- 97
2019-01-23 00:00:00 7.7 6 Norte 17 Sudoeste 1.4 -- -- 100
2019-01-22 23:00:00 6 14 Sudoeste 29 Sudoeste 0.6 -- -- 100
2019-01-22 22:00:00 5.8 14 Sudoeste 26 Oeste 1.6 -- -- 99
2019-01-22 21:00:00 5.7 12 Sudoeste 18 Sudoeste 2.6 -- -- 98
2019-01-22 20:00:00 6.2 8 Sudoeste 19 Sur 2.8 -- -- 98
2019-01-22 19:00:00 6.9 9 Sudoeste 23 Oeste 1.6 -- -- 96
2019-01-22 18:00:00 7.2 12 Noroeste 32 Oeste 1.6 -- -- 92
2019-01-22 17:00:00 7.4 12 Oeste 36 Noroeste 0 -- -- 92
2019-01-22 16:00:00 7.6 16 Norte 44 Noroeste 1 -- -- 87
2019-01-22 15:00:00 8 21 Norte 46 Norte 1.2 -- -- 85
2019-01-22 14:00:00 7.8 14 Noroeste 39 Norte 1.4 -- -- 89
2019-01-22 13:00:00 6.8 17 Oeste 33 Oeste 4.2 -- -- 100
2019-01-22 12:00:00 6.5 8 Sudoeste 18 Sudoeste 4 -- -- 99
2019-01-22 11:00:00 6.1 10 Sudoeste 22 Sudoeste 4.2 -- -- 98
2019-01-22 10:00:00 6 9 Sudoeste 17 Sudoeste 0.6 -- -- 95
2019-01-22 09:00:00 5.4 9 Sudoeste 14 Sudoeste 0.2 -- -- 96
2019-01-22 08:00:00 5.4 10 Sudoeste 18 Sudoeste 0.2 -- -- 93
2019-01-22 07:00:00 4.9 10 Sudoeste 13 Sudoeste 0 -- -- 96
2019-01-22 06:00:00 4.1 8 Sudoeste 14 Sudoeste 0.2 -- -- 99
2019-01-22 05:00:00 3.4 11 Sudoeste 14 Sudoeste 0 -- -- 100
2019-01-22 04:00:00 3.3 8 Sudoeste 11 Sudoeste 0 -- -- 99
2019-01-22 03:00:00 3.1 6 Oeste 11 Oeste 0 -- -- 99
2019-01-22 02:00:00 2.9 6 Sudoeste 8 Sudoeste 0 -- -- 99
2019-01-22 01:00:00 2.3 6 Sudoeste 9 Oeste 0 -- -- 99
2019-01-22 00:00:00 2.6 5 Sudoeste 9 Sudoeste 0 -- -- 99
2019-01-21 23:00:00 2.1 6 Sudoeste 11 Sudoeste 0 -- -- 98
2019-01-21 22:00:00 2.6 9 Sudoeste 13 Sudoeste 0 -- -- 97
2019-01-21 21:00:00 3.6 5 Sudoeste 8 Sudoeste 0 -- -- 95
2019-01-21 20:00:00 4.9 5 Sudoeste 10 Sudoeste 0 -- -- 93
2019-01-21 19:00:00 5.8 8 Sudoeste 12 Oeste 0 -- -- 87
2019-01-21 18:00:00 7 5 Norte 16 Norte 0 -- -- 77
2019-01-21 17:00:00 9.4 7 Norte 18 Norte 0 -- -- 68
2019-01-21 16:00:00 9.1 9 Norte 19 Nordeste 0 -- -- 69
2019-01-21 15:00:00 9.7 14 Nordeste 27 Nordeste 0 -- -- 66
2019-01-21 14:00:00 10.1 13 Nordeste 27 Nordeste 0 -- -- 66
2019-01-21 13:00:00 9.1 11 Norte 26 Norte 0 -- -- 73
2019-01-21 12:00:00 8.6 10 Norte 21 Norte 0 -- -- 74
2019-01-21 11:00:00 8.1 12 Norte 20 Norte 0 -- -- 75
2019-01-21 10:00:00 7 3 Noroeste 8 Norte 0 -- -- 91
2019-01-21 09:00:00 7.3 3 Norte 11 Nordeste 0 -- -- 87
2019-01-21 08:00:00 7.4 6 Nordeste 16 Norte 0 -- -- 87
2019-01-21 07:00:00 7.3 8 Norte 17 Norte 0 -- -- 89
2019-01-21 06:00:00 7.3 5 Nordeste 19 Este 0 -- -- 94
2019-01-21 05:00:00 6.7 5 Este 11 Este 0.6 -- -- 100
2019-01-21 04:00:00 6.5 8 Oeste 13 Sudoeste 0.6 -- -- 100
2019-01-21 03:00:00 6.5 6 Oeste 13 Sudoeste 1.4 -- -- 100
2019-01-21 02:00:00 6.6 9 Sudoeste 12 Sudoeste 0 -- -- 100
2019-01-21 01:00:00 6.8 6 Sudoeste 12 Oeste 0.2 -- -- 100
2019-01-21 00:00:00 6.8 5 Noroeste 13 Noroeste 0.4 -- -- 100
2019-01-20 23:00:00 6.8 11 Oeste 17 Noroeste 1 -- -- 100
2019-01-20 22:00:00 7.2 6 Sudoeste 13 Sudoeste 0.6 -- -- 100
2019-01-20 21:00:00 7.7 0 Calma 24 Norte 1.4 -- -- 99
2019-01-20 20:00:00 7.5 8 Oeste 12 Oeste 0 -- -- 99
2019-01-20 19:00:00 8 0 Calma 22 Nordeste 0.8 -- -- 97
2019-01-20 18:00:00 8.6 19 Nordeste 41 Norte 1 -- -- 92
2019-01-20 17:00:00 9 4 Nordeste 24 Norte 0.2 -- -- 93
2019-01-20 16:00:00 10.3 13 Norte 24 Norte 0 -- -- 90
2019-01-20 15:00:00 10.1 11 Nordeste 19 Nordeste 0 -- -- 91
2019-01-20 14:00:00 8 6 Nordeste 26 Este 5.4 -- -- 98
2019-01-20 13:00:00 10.4 8 Nordeste 14 Nordeste 0 -- -- 90
2019-01-20 12:00:00 9.3 2 Sudoeste 9 Sudoeste 0 -- -- 100
2019-01-20 11:00:00 8.2 6 Sudoeste 10 Sudoeste 0 -- -- 100
2019-01-20 10:00:00 7.2 6 Sur 15 Oeste 0.8 -- -- 100
2019-01-20 09:00:00 6.9 8 Oeste 16 Nordeste 2.6 -- -- 100
2019-01-20 08:00:00 6.7 5 Norte 12 Sudoeste 1.6 -- -- 100
2019-01-20 07:00:00 6.4 2 Sudoeste 12 Sudoeste 0 -- -- 99
2019-01-20 06:00:00 6.7 8 Oeste 16 Oeste 1.4 -- -- 97
2019-01-20 05:00:00 7.1 4 Sudoeste 10 Sudoeste 0 -- -- 89
2019-01-20 04:00:00 7.7 8 Sudoeste 12 Sudoeste 0 -- -- 86
2019-01-20 03:00:00 7.8 8 Sudoeste 11 Sudoeste 0 -- -- 87
2019-01-20 02:00:00 8.1 3 Sudoeste 8 Sur 0 -- -- 84
2019-01-20 01:00:00 7.9 3 Sur 5 Sur 0 -- -- 84
2019-01-20 00:00:00 8.2 4 Sur 7 Oeste 0 -- -- 80
2019-01-19 23:00:00 8.6 5 Sudoeste 14 Sudoeste 0 -- -- 78
2019-01-19 22:00:00 8.9 9 Sudoeste 18 Sudoeste 0 -- -- 77
2019-01-19 21:00:00 9 7 Sudoeste 17 Sudoeste 0 -- -- 77
2019-01-19 20:00:00 8.9 6 Sudoeste 19 Oeste 0 -- -- 75
2019-01-19 19:00:00 9.4 12 Oeste 21 Oeste 0 -- -- 72
2019-01-19 18:00:00 10 11 Sudoeste 33 Oeste 0 -- -- 70
2019-01-19 17:00:00 10.7 15 Oeste 27 Oeste 0 -- -- 68
2019-01-19 16:00:00 10.8 14 Oeste 33 Oeste 0 -- -- 68
2019-01-19 15:00:00 11.4 12 Oeste 27 Sudoeste 0 -- -- 67
2019-01-19 14:00:00 11.7 16 Oeste 23 Sudoeste 0 -- -- 68
2019-01-19 13:00:00 10.9 12 Sudoeste 22 Sudoeste 0 -- -- 72
2019-01-19 12:00:00 10.5 9 Sudoeste 20 Sudoeste 0 -- -- 75
2019-01-19 11:00:00 8.5 3 Sudoeste 7 Sur 0 -- -- 87
2019-01-19 10:00:00 5.9 3 Sudoeste 8 Sudoeste 0 -- -- 95
2019-01-19 09:00:00 4.6 4 Sudoeste 8 Sudoeste 0 -- -- 96
2019-01-19 08:00:00 5 4 Sudoeste 7 Sudoeste 0 -- -- 95
2019-01-19 07:00:00 5.5 3 Sudoeste 8 Sudoeste 0 -- -- 92
2019-01-19 06:00:00 5.8 7 Sudoeste 18 Oeste 0 -- -- 92
2019-01-19 05:00:00 5.8 7 Oeste 15 Sudoeste 0 -- -- 95
2019-01-19 04:00:00 6.3 8 Sudoeste 15 Oeste 0.4 -- -- 97
2019-01-19 03:00:00 6.6 6 Este 13 Sudoeste 0 -- -- 95
2019-01-19 02:00:00 6.6 8 Oeste 12 Oeste 0 -- -- 97
2019-01-19 01:00:00 6.6 6 Sudoeste 13 Sudoeste 0.4 -- -- 97
2019-01-19 00:00:00 6.3 7 Sur 14 Sudoeste 0.4 -- -- 96